Goldsboro, Texas
Current Conditions -  °F | °C
As of 11:35 AM on Friday 26 Dec 2014 (Local Time) from KCOM Reporting Station
Clear Clear  
Wind Chill: 62°   Ceiling: Unl
Heat Index: 62°   Visibility: 10mi
Dew Point: 51°   Wind: 13mph
Humidity: 65%   Direction: 190°S
Pressure: 29.9"   Gusts: NA
Location:  32.06°N, 99.68°W
Report Text: KCOM 261735Z AUTO 19011KT 10SM CLR 17/10 A2990 RMK AO2 T01680103
Loading
Personal Weather Stations






























Interactive Weather Map New forecast layout! Learn more

10-Day Weather Forecast

Advertisements
Track Severe Weather on mobile